createdAt,value
2018-01-20T00:00:49.228Z,0.00
2018-01-20T00:01:49.141Z,0.00
2018-01-20T00:02:49.057Z,0.00
2018-01-20T00:03:48.973Z,0.00
2018-01-20T00:04:48.908Z,0.00
2018-01-20T00:05:48.802Z,0.00
2018-01-20T00:06:48.722Z,0.00
2018-01-20T00:07:48.629Z,0.00
2018-01-20T00:08:48.548Z,0.00
2018-01-20T00:09:48.459Z,0.00
2018-01-20T00:10:48.374Z,0.00
2018-01-20T00:11:48.293Z,0.00
2018-01-20T00:12:48.205Z,0.00
2018-01-20T00:13:48.115Z,0.00
2018-01-20T00:14:48.033Z,0.00
2018-01-20T00:15:47.946Z,0.00
2018-01-20T00:16:48.706Z,0.00
2018-01-20T00:17:47.774Z,0.00
2018-01-20T00:18:47.690Z,0.00
2018-01-20T00:19:47.610Z,0.00
2018-01-20T00:20:47.518Z,0.00
2018-01-20T00:21:47.491Z,0.00
2018-01-20T00:22:47.349Z,0.00
2018-01-20T00:23:47.263Z,0.00
2018-01-20T00:24:47.187Z,0.00
2018-01-20T00:25:47.093Z,0.00
2018-01-20T00:26:47.025Z,0.00
2018-01-20T00:27:46.921Z,0.00
2018-01-20T00:28:46.846Z,0.00
2018-01-20T00:29:46.754Z,0.00
2018-01-20T00:30:46.666Z,0.00
2018-01-20T00:31:46.583Z,0.00
2018-01-20T00:32:46.494Z,0.00
2018-01-20T00:33:46.408Z,0.00
2018-01-20T00:34:46.345Z,0.00
2018-01-20T00:35:46.241Z,0.00
2018-01-20T00:36:46.161Z,0.00
2018-01-20T00:37:46.072Z,0.00
2018-01-20T00:38:46.041Z,0.00
2018-01-20T00:39:45.908Z,0.00
2018-01-20T00:40:45.819Z,0.00
2018-01-20T00:41:45.727Z,0.00
2018-01-20T00:42:45.640Z,0.00
2018-01-20T00:43:45.556Z,0.00
2018-01-20T00:44:45.469Z,0.00
2018-01-20T00:45:45.382Z,0.00
2018-01-20T00:46:45.317Z,0.00
2018-01-20T00:47:45.214Z,0.00
2018-01-20T00:48:45.126Z,0.00
2018-01-20T00:49:45.041Z,0.00
2018-01-20T00:50:44.960Z,0.00
2018-01-20T00:51:44.871Z,0.00
2018-01-20T00:52:44.864Z,0.00
2018-01-20T00:53:44.719Z,0.00
2018-01-20T00:54:44.615Z,0.00
2018-01-20T00:55:44.530Z,0.00
2018-01-20T00:56:44.441Z,0.00
2018-01-20T00:57:44.357Z,0.00
2018-01-20T00:58:44.276Z,0.00
2018-01-20T00:59:44.189Z,0.00
2018-01-20T01:00:44.099Z,0.00
2018-01-20T01:01:44.015Z,0.00
2018-01-20T01:02:43.929Z,0.00
2018-01-20T01:03:43.842Z,0.00
2018-01-20T01:04:43.753Z,0.00
2018-01-20T01:05:43.668Z,0.00
2018-01-20T01:06:43.587Z,0.00
2018-01-20T01:07:43.496Z,0.00
2018-01-20T01:08:43.411Z,0.00
2018-01-20T01:09:43.325Z,0.00
2018-01-20T01:10:43.246Z,0.00
2018-01-20T01:11:43.173Z,0.00
2018-01-20T01:12:43.067Z,0.00
2018-01-20T01:13:42.979Z,0.00
2018-01-20T01:14:42.894Z,0.00
2018-01-20T01:15:42.811Z,0.00
2018-01-20T01:16:42.722Z,0.00
2018-01-20T01:17:42.651Z,0.00
2018-01-20T01:18:42.567Z,0.00
2018-01-20T01:19:42.466Z,0.00
2018-01-20T01:20:42.379Z,0.00
2018-01-20T01:21:42.296Z,0.00
2018-01-20T01:22:42.265Z,0.00
2018-01-20T01:23:42.121Z,0.00
2018-01-20T01:24:42.041Z,0.00
2018-01-20T01:25:41.950Z,0.00
2018-01-20T01:26:41.866Z,0.00
2018-01-20T01:27:41.778Z,0.00
2018-01-20T01:28:41.691Z,0.00
2018-01-20T01:29:41.607Z,0.00
2018-01-20T01:30:41.520Z,0.00
2018-01-20T01:31:41.438Z,0.00
2018-01-20T01:32:41.361Z,0.00
2018-01-20T01:33:41.261Z,0.00
2018-01-20T01:34:41.177Z,0.00
2018-01-20T01:35:41.092Z,0.00
2018-01-20T01:36:41.007Z,0.00
2018-01-20T01:37:40.925Z,0.00
2018-01-20T01:38:40.836Z,0.00
2018-01-20T01:39:40.766Z,0.00
2018-01-20T01:40:40.700Z,0.00
2018-01-20T01:41:40.575Z,0.00
2018-01-20T01:42:40.500Z,0.00
2018-01-20T01:43:40.405Z,0.00
2018-01-20T01:44:40.320Z,0.00
2018-01-20T01:45:40.235Z,0.00
2018-01-20T01:46:40.150Z,0.00
2018-01-20T01:47:40.068Z,0.00
2018-01-20T01:48:39.980Z,0.00
2018-01-20T01:49:39.893Z,0.00
2018-01-20T01:50:39.806Z,0.00
2018-01-20T01:51:39.723Z,0.00
2018-01-20T01:52:39.637Z,0.00
2018-01-20T01:53:39.549Z,0.00
2018-01-20T01:54:39.466Z,0.00
2018-01-20T01:55:39.381Z,0.00
2018-01-20T01:56:39.291Z,0.00
2018-01-20T01:57:39.213Z,0.00
2018-01-20T01:58:39.122Z,0.00
2018-01-20T01:59:39.037Z,0.00
2018-01-20T02:00:38.951Z,0.00
2018-01-20T02:01:38.867Z,0.00
2018-01-20T02:02:38.783Z,0.00
2018-01-20T02:03:38.694Z,0.00
2018-01-20T02:04:38.614Z,0.00
2018-01-20T02:05:38.522Z,0.00
2018-01-20T02:06:38.449Z,0.00
2018-01-20T02:07:38.351Z,0.00
2018-01-20T02:08:38.277Z,0.00
2018-01-20T02:09:38.180Z,0.00
2018-01-20T02:10:38.094Z,0.00
2018-01-20T02:11:38.040Z,0.00
2018-01-20T02:12:37.931Z,0.00
2018-01-20T02:13:37.839Z,0.00
2018-01-20T02:14:37.756Z,0.00
2018-01-20T02:15:37.678Z,0.00
2018-01-20T02:16:37.586Z,0.00
2018-01-20T02:17:37.496Z,0.00
2018-01-20T02:18:37.411Z,0.00
2018-01-20T02:19:37.330Z,0.00
2018-01-20T02:20:37.240Z,0.00
2018-01-20T02:21:37.154Z,0.00
2018-01-20T02:22:37.076Z,0.00
2018-01-20T02:23:36.984Z,0.00
2018-01-20T02:24:36.899Z,0.00
2018-01-20T02:25:36.812Z,0.00
2018-01-20T02:26:36.729Z,0.00
2018-01-20T02:27:36.642Z,0.00
2018-01-20T02:28:36.557Z,0.00
2018-01-20T02:29:36.471Z,0.00
2018-01-20T02:30:36.394Z,0.00
2018-01-20T02:31:36.302Z,0.00
2018-01-20T02:32:36.212Z,0.00
2018-01-20T02:33:36.132Z,0.00
2018-01-20T02:34:36.052Z,0.00
2018-01-20T02:35:35.957Z,0.00
2018-01-20T02:36:35.872Z,0.00
2018-01-20T02:37:35.786Z,0.00
2018-01-20T02:38:35.700Z,0.00
2018-01-20T02:39:35.639Z,0.00
2018-01-20T02:40:35.531Z,0.00
2018-01-20T02:41:35.444Z,0.00
2018-01-20T02:42:35.358Z,0.00
2018-01-20T02:43:35.279Z,0.00
2018-01-20T02:44:35.191Z,0.00
2018-01-20T02:45:35.130Z,0.00
2018-01-20T02:46:35.017Z,0.00
2018-01-20T02:47:34.931Z,0.00
2018-01-20T02:48:34.845Z,0.00
2018-01-20T02:49:34.761Z,0.00
2018-01-20T02:50:34.672Z,0.00
2018-01-20T02:51:34.590Z,0.00
2018-01-20T02:52:34.508Z,0.00
2018-01-20T02:53:35.222Z,0.00
2018-01-20T02:54:34.337Z,0.00
2018-01-20T02:55:34.247Z,0.00
2018-01-20T02:56:34.160Z,0.00
2018-01-20T02:57:34.076Z,0.00
2018-01-20T02:58:33.992Z,0.00
2018-01-20T02:59:33.908Z,0.00
2018-01-20T03:00:33.817Z,0.00
2018-01-20T03:01:33.733Z,0.00
2018-01-20T03:02:33.654Z,0.00
2018-01-20T03:03:33.565Z,0.00
2018-01-20T03:04:33.476Z,0.00
2018-01-20T03:05:33.391Z,0.00
2018-01-20T03:06:33.348Z,0.00
2018-01-20T03:07:33.219Z,0.00
2018-01-20T03:08:33.133Z,0.00
2018-01-20T03:09:33.055Z,0.00
2018-01-20T03:10:32.963Z,0.00
2018-01-20T03:11:32.878Z,0.00
2018-01-20T03:12:32.793Z,0.00
2018-01-20T03:13:32.705Z,0.00
2018-01-20T03:14:32.627Z,0.00
2018-01-20T03:15:32.605Z,0.00
2018-01-20T03:16:32.449Z,0.00
2018-01-20T03:17:32.365Z,0.00
2018-01-20T03:18:32.277Z,0.00
2018-01-20T03:19:32.191Z,0.00
2018-01-20T03:20:32.106Z,0.00
2018-01-20T03:21:32.031Z,0.00
2018-01-20T03:22:31.934Z,0.00
2018-01-20T03:23:31.848Z,0.00
2018-01-20T03:24:31.776Z,0.00
2018-01-20T03:25:31.676Z,0.00
2018-01-20T03:26:31.594Z,0.00
2018-01-20T03:27:31.523Z,0.00
2018-01-20T03:28:31.422Z,0.00
2018-01-20T03:29:31.335Z,0.00
2018-01-20T03:30:31.261Z,0.00
2018-01-20T03:31:31.174Z,0.00
2018-01-20T03:32:31.079Z,0.00
2018-01-20T03:33:31.005Z,0.00
2018-01-20T03:34:30.911Z,0.00
2018-01-20T03:35:30.823Z,0.00
2018-01-20T03:36:30.743Z,0.00
2018-01-20T03:37:30.650Z,0.00
2018-01-20T03:38:30.561Z,0.00
2018-01-20T03:39:30.478Z,0.00
2018-01-20T03:40:30.451Z,0.00
2018-01-20T03:41:30.310Z,0.00
2018-01-20T03:42:30.217Z,0.00
2018-01-20T03:43:30.136Z,0.00
2018-01-20T03:44:30.053Z,0.00
2018-01-20T03:45:29.962Z,0.00
2018-01-20T03:46:29.874Z,0.00
2018-01-20T03:47:29.797Z,0.00
2018-01-20T03:48:29.722Z,0.00
2018-01-20T03:49:29.620Z,0.00
2018-01-20T03:50:29.553Z,0.00
2018-01-20T03:51:29.458Z,0.00
2018-01-20T03:52:29.359Z,0.00
2018-01-20T03:53:29.272Z,0.00
2018-01-20T03:54:29.188Z,0.00
2018-01-20T03:55:29.101Z,0.00
2018-01-20T03:56:29.015Z,0.00
2018-01-20T03:57:28.930Z,0.00
2018-01-20T03:58:28.844Z,0.00
2018-01-20T03:59:28.758Z,0.00
2018-01-20T04:00:28.672Z,0.00
2018-01-20T04:01:28.601Z,0.00
2018-01-20T04:02:28.514Z,0.00
2018-01-20T04:03:28.418Z,0.00
2018-01-20T04:04:28.327Z,0.00
2018-01-20T04:05:28.241Z,0.00
2018-01-20T04:06:28.156Z,0.00
2018-01-20T04:07:28.068Z,0.00
2018-01-20T04:08:27.983Z,0.00
2018-01-20T04:09:27.903Z,0.00
2018-01-20T04:10:27.811Z,0.00
2018-01-20T04:11:27.758Z,0.00
2018-01-20T04:12:27.646Z,0.00
2018-01-20T04:13:27.553Z,0.00
2018-01-20T04:14:27.467Z,0.00
2018-01-20T04:15:27.382Z,0.00
2018-01-20T04:16:27.322Z,0.00
2018-01-20T04:17:27.212Z,0.00
2018-01-20T04:18:27.126Z,0.00
2018-01-20T04:19:27.040Z,0.00
2018-01-20T04:20:26.951Z,0.00
2018-01-20T04:21:26.865Z,0.00
2018-01-20T04:22:26.778Z,0.00
2018-01-20T04:23:26.701Z,0.00
2018-01-20T04:24:26.618Z,0.00
2018-01-20T04:25:26.523Z,0.00
2018-01-20T04:26:26.437Z,0.00
2018-01-20T04:27:26.383Z,0.00
2018-01-20T04:28:26.265Z,0.00
2018-01-20T04:29:26.178Z,0.00
2018-01-20T04:30:26.096Z,0.00
2018-01-20T04:31:26.007Z,0.00
2018-01-20T04:32:25.939Z,0.00
2018-01-20T04:33:25.838Z,0.00
2018-01-20T04:34:25.764Z,0.00
2018-01-20T04:35:25.666Z,0.00
2018-01-20T04:36:25.579Z,0.00
2018-01-20T04:37:25.492Z,0.00
2018-01-20T04:38:25.405Z,0.00
2018-01-20T04:39:25.323Z,0.00
2018-01-20T04:40:25.234Z,0.00
2018-01-20T04:41:25.147Z,0.00
2018-01-20T04:42:25.065Z,0.00
2018-01-20T04:43:24.978Z,0.00
2018-01-20T04:44:24.890Z,0.00
2018-01-20T04:45:24.809Z,0.00
2018-01-20T04:46:24.761Z,0.00
2018-01-20T04:47:24.632Z,0.00
2018-01-20T04:48:24.552Z,0.00
2018-01-20T04:49:24.461Z,0.00
2018-01-20T04:50:24.378Z,0.00
2018-01-20T04:51:24.293Z,0.00
2018-01-20T04:52:24.240Z,0.00
2018-01-20T04:53:24.141Z,0.00
2018-01-20T04:54:24.040Z,0.00
2018-01-20T04:55:23.946Z,0.00
2018-01-20T04:56:23.857Z,0.00
2018-01-20T04:57:23.775Z,0.00
2018-01-20T04:58:23.690Z,0.00
2018-01-20T04:59:23.602Z,0.00
2018-01-20T05:00:23.520Z,0.00
2018-01-20T05:01:23.437Z,0.00
2018-01-20T05:02:23.344Z,0.00
2018-01-20T05:03:23.272Z,0.00
2018-01-20T05:04:23.191Z,0.00
2018-01-20T05:05:23.086Z,0.00
2018-01-20T05:06:23.004Z,0.00
2018-01-20T05:07:22.916Z,0.00
2018-01-20T05:08:22.829Z,0.00
2018-01-20T05:09:22.761Z,0.00
2018-01-20T05:10:22.659Z,0.00
2018-01-20T05:11:22.576Z,0.00
2018-01-20T05:12:22.485Z,0.00
2018-01-20T05:13:22.401Z,0.00
2018-01-20T05:14:22.316Z,0.00
2018-01-20T05:15:22.230Z,0.00
2018-01-20T05:16:22.142Z,0.00
2018-01-20T05:17:22.058Z,0.00
2018-01-20T05:18:21.975Z,0.00
2018-01-20T05:19:21.890Z,0.00
2018-01-20T05:20:21.800Z,0.00
2018-01-20T05:21:21.716Z,0.00
2018-01-20T05:22:21.631Z,0.00
2018-01-20T05:23:21.544Z,0.00
2018-01-20T05:24:21.479Z,0.00
2018-01-20T05:25:21.372Z,0.00
2018-01-20T05:26:21.285Z,0.00
2018-01-20T05:27:21.215Z,0.00
2018-01-20T05:28:21.112Z,0.00
2018-01-20T05:29:21.030Z,0.00
2018-01-20T05:30:20.944Z,0.00
2018-01-20T05:31:20.860Z,0.00
2018-01-20T05:32:20.769Z,0.00
2018-01-20T05:33:20.706Z,0.00
2018-01-20T05:34:20.598Z,0.00
2018-01-20T05:35:20.523Z,0.00
2018-01-20T05:36:20.438Z,0.00
2018-01-20T05:37:20.342Z,0.00
2018-01-20T05:38:20.256Z,0.00
2018-01-20T05:39:20.171Z,0.00
2018-01-20T05:40:20.083Z,0.00
2018-01-20T05:41:19.997Z,0.00
2018-01-20T05:42:19.914Z,0.00
2018-01-20T05:43:19.837Z,0.00
2018-01-20T05:44:19.741Z,0.00
2018-01-20T05:45:19.671Z,0.00
2018-01-20T05:46:19.572Z,0.00
2018-01-20T05:47:19.484Z,0.00
2018-01-20T05:48:19.397Z,0.00
2018-01-20T05:49:19.314Z,0.00
2018-01-20T05:50:19.227Z,0.00
2018-01-20T05:51:19.146Z,0.00
2018-01-20T05:52:19.055Z,0.00
2018-01-20T05:53:18.972Z,0.00
2018-01-20T05:54:18.885Z,0.00
2018-01-20T05:55:18.813Z,0.00
2018-01-20T05:56:18.710Z,0.00
2018-01-20T05:57:18.627Z,0.00
2018-01-20T05:58:18.539Z,0.00
2018-01-20T05:59:18.454Z,0.00
2018-01-20T06:00:18.369Z,0.00
2018-01-20T06:01:18.282Z,0.00
2018-01-20T06:02:18.196Z,0.00
2018-01-20T06:03:18.133Z,0.00
2018-01-20T06:04:18.025Z,0.00
2018-01-20T06:05:17.954Z,0.00
2018-01-20T06:06:17.866Z,0.00
2018-01-20T06:07:17.790Z,0.00
2018-01-20T06:08:17.680Z,0.00
2018-01-20T06:09:17.594Z,0.00
2018-01-20T06:10:17.510Z,0.00
2018-01-20T06:11:17.428Z,0.00
2018-01-20T06:12:17.348Z,0.00
2018-01-20T06:13:17.254Z,0.00
2018-01-20T06:14:17.181Z,0.00
2018-01-20T06:15:17.082Z,0.00
2018-01-20T06:16:17.028Z,0.00
2018-01-20T06:17:16.915Z,0.00
2018-01-20T06:18:16.825Z,0.00
2018-01-20T06:19:16.738Z,0.00
2018-01-20T06:20:16.655Z,0.00
2018-01-20T06:21:16.580Z,0.00
2018-01-20T06:22:16.483Z,0.00
2018-01-20T06:23:16.393Z,0.00
2018-01-20T06:24:16.308Z,0.00
2018-01-20T06:25:16.228Z,0.00
2018-01-20T06:26:16.138Z,0.00
2018-01-20T06:27:16.063Z,0.00
2018-01-20T06:28:15.965Z,0.00
2018-01-20T06:29:15.880Z,0.00
2018-01-20T06:30:15.795Z,0.00
2018-01-20T06:31:15.709Z,0.00
2018-01-20T06:32:15.621Z,0.00
2018-01-20T06:33:15.534Z,0.00
2018-01-20T06:34:15.456Z,0.00
2018-01-20T06:35:15.366Z,0.00
2018-01-20T06:36:15.282Z,0.00
2018-01-20T06:37:15.202Z,0.00
2018-01-20T06:38:15.109Z,0.00
2018-01-20T06:39:15.028Z,0.00
2018-01-20T06:40:14.934Z,0.00
2018-01-20T06:41:14.851Z,0.00
2018-01-20T06:42:14.764Z,0.00
2018-01-20T06:43:14.678Z,0.00
2018-01-20T06:44:14.595Z,0.00
2018-01-20T06:45:14.504Z,0.00
2018-01-20T06:46:14.421Z,0.00
2018-01-20T06:47:14.333Z,0.00
2018-01-20T06:48:14.246Z,0.00
2018-01-20T06:49:14.160Z,0.00
2018-01-20T06:50:14.082Z,0.00
2018-01-20T06:51:13.992Z,0.00
2018-01-20T06:52:13.902Z,0.00
2018-01-20T06:53:13.817Z,0.00
2018-01-20T06:54:13.732Z,0.00
2018-01-20T06:55:13.648Z,0.00
2018-01-20T06:56:13.558Z,0.00
2018-01-20T06:57:13.477Z,0.00
2018-01-20T06:58:13.403Z,0.00
2018-01-20T06:59:13.303Z,0.00
2018-01-20T07:00:13.214Z,0.00
2018-01-20T07:01:13.129Z,0.00
2018-01-20T07:02:13.046Z,0.00
2018-01-20T07:03:13.780Z,0.00
2018-01-20T07:04:12.873Z,0.00
2018-01-20T07:05:12.786Z,0.00
2018-01-20T07:06:12.700Z,0.00
2018-01-20T07:07:12.612Z,0.00
2018-01-20T07:08:12.548Z,0.00
2018-01-20T07:09:12.442Z,0.00
2018-01-20T07:10:12.364Z,0.00
2018-01-20T07:11:12.270Z,0.00
2018-01-20T07:12:12.182Z,0.00
2018-01-20T07:13:12.096Z,0.00
2018-01-20T07:14:12.010Z,0.00
2018-01-20T07:15:11.924Z,0.00
2018-01-20T07:16:11.838Z,0.00
2018-01-20T07:17:11.751Z,0.00
2018-01-20T07:18:11.667Z,0.00
2018-01-20T07:19:11.592Z,0.00
2018-01-20T07:20:11.494Z,0.00
2018-01-20T07:21:11.415Z,0.00
2018-01-20T07:22:11.325Z,0.00
2018-01-20T07:23:11.236Z,0.00
2018-01-20T07:24:11.148Z,0.00
2018-01-20T07:25:11.064Z,0.00
2018-01-20T07:26:11.014Z,0.00
2018-01-20T07:27:10.892Z,0.00
2018-01-20T07:28:10.808Z,0.00
2018-01-20T07:29:10.721Z,0.00
2018-01-20T07:30:10.655Z,0.00
2018-01-20T07:31:10.564Z,0.00
2018-01-20T07:32:10.461Z,0.00
2018-01-20T07:33:10.377Z,0.00
2018-01-20T07:34:10.288Z,0.00
2018-01-20T07:35:10.203Z,5.63
2018-01-20T07:36:10.120Z,5.63
2018-01-20T07:37:10.061Z,5.63
2018-01-20T07:38:09.946Z,5.63
2018-01-20T07:39:09.858Z,5.63
2018-01-20T07:40:09.773Z,11.25
2018-01-20T07:41:09.698Z,11.25
2018-01-20T07:42:09.601Z,11.25
2018-01-20T07:43:09.519Z,11.25
2018-01-20T07:44:09.429Z,11.25
2018-01-20T07:45:10.257Z,11.25
2018-01-20T07:46:09.258Z,11.25
2018-01-20T07:47:09.171Z,11.25
2018-01-20T07:48:09.084Z,16.88
2018-01-20T07:49:09.005Z,16.88
2018-01-20T07:50:08.917Z,16.88
2018-01-20T07:51:08.841Z,11.25
2018-01-20T07:52:08.746Z,11.25
2018-01-20T07:53:08.656Z,11.25
2018-01-20T07:54:08.571Z,11.25
2018-01-20T07:55:08.486Z,16.88
2018-01-20T07:56:08.400Z,16.88
2018-01-20T07:57:08.315Z,16.88
2018-01-20T07:58:08.226Z,16.88
2018-01-20T07:59:08.143Z,16.88
2018-01-20T08:00:08.056Z,16.88
2018-01-20T08:01:07.978Z,22.50
2018-01-20T08:02:07.886Z,22.50
2018-01-20T08:03:07.806Z,28.13
2018-01-20T08:04:07.714Z,28.13
2018-01-20T08:05:07.627Z,28.13
2018-01-20T08:06:07.541Z,33.75
2018-01-20T08:07:07.454Z,33.75
2018-01-20T08:08:07.369Z,28.13
2018-01-20T08:09:07.299Z,28.13
2018-01-20T08:10:07.200Z,22.50
2018-01-20T08:11:07.114Z,22.50
2018-01-20T08:12:07.029Z,22.50
2018-01-20T08:13:06.962Z,22.50
2018-01-20T08:14:06.857Z,22.50
2018-01-20T08:15:06.771Z,28.13
2018-01-20T08:16:06.684Z,33.75
2018-01-20T08:17:06.601Z,33.75
2018-01-20T08:18:06.514Z,39.38
2018-01-20T08:19:06.430Z,45.00
2018-01-20T08:20:06.341Z,50.63
2018-01-20T08:21:06.254Z,56.25
2018-01-20T08:22:06.223Z,61.88
2018-01-20T08:23:06.107Z,67.50
2018-01-20T08:24:06.030Z,73.13
2018-01-20T08:25:05.912Z,78.75
2018-01-20T08:26:05.830Z,84.38
2018-01-20T08:27:05.743Z,90.00
2018-01-20T08:28:05.654Z,90.00
2018-01-20T08:29:05.569Z,106.88
2018-01-20T08:30:05.510Z,112.50
2018-01-20T08:31:05.398Z,123.75
2018-01-20T08:32:05.329Z,123.75
2018-01-20T08:33:05.228Z,135.00
2018-01-20T08:34:05.143Z,135.00
2018-01-20T08:35:05.059Z,140.63
2018-01-20T08:36:04.974Z,140.63
2018-01-20T08:37:04.886Z,157.50
2018-01-20T08:38:04.802Z,168.75
2018-01-20T08:39:04.715Z,174.38
2018-01-20T08:40:04.631Z,163.13
2018-01-20T08:41:04.553Z,163.13
2018-01-20T08:42:04.471Z,163.13
2018-01-20T08:43:04.379Z,168.75
2018-01-20T08:44:05.456Z,163.13
2018-01-20T08:45:04.203Z,146.25
2018-01-20T08:46:04.117Z,140.63
2018-01-20T08:47:04.034Z,135.00
2018-01-20T08:48:03.950Z,140.63
2018-01-20T08:49:03.863Z,151.88
2018-01-20T08:50:03.776Z,151.88
2018-01-20T08:51:03.737Z,168.75
2018-01-20T08:52:03.609Z,146.25
2018-01-20T08:53:03.524Z,140.63
2018-01-20T08:54:03.441Z,135.00
2018-01-20T08:55:03.352Z,129.38
2018-01-20T08:56:03.268Z,135.00
2018-01-20T08:57:03.182Z,151.88
2018-01-20T08:58:03.099Z,157.50
2018-01-20T08:59:03.013Z,157.50
2018-01-20T09:00:02.926Z,163.13
2018-01-20T09:01:02.840Z,163.13
2018-01-20T09:02:02.758Z,174.38
2018-01-20T09:03:02.674Z,185.63
2018-01-20T09:04:02.587Z,196.88
2018-01-20T09:05:02.502Z,202.50
2018-01-20T09:06:02.417Z,213.75
2018-01-20T09:07:02.332Z,241.88
2018-01-20T09:08:02.284Z,264.38
2018-01-20T09:09:02.163Z,298.13
2018-01-20T09:10:02.098Z,337.50
2018-01-20T09:11:01.992Z,360.00
2018-01-20T09:12:01.916Z,360.00
2018-01-20T09:13:01.826Z,337.50
2018-01-20T09:14:01.744Z,292.50
2018-01-20T09:15:01.654Z,258.75
2018-01-20T09:16:01.571Z,225.00
2018-01-20T09:17:01.485Z,196.88
2018-01-20T09:18:01.402Z,208.13
2018-01-20T09:19:01.340Z,208.13
2018-01-20T09:20:01.232Z,191.25
2018-01-20T09:21:01.147Z,174.38
2018-01-20T09:22:01.068Z,168.75
2018-01-20T09:23:00.979Z,191.25
2018-01-20T09:24:00.895Z,208.13
2018-01-20T09:25:00.810Z,202.50
2018-01-20T09:26:00.725Z,185.63
2018-01-20T09:27:00.642Z,174.38
2018-01-20T09:28:00.556Z,174.38
2018-01-20T09:29:00.475Z,146.25
2018-01-20T09:30:00.396Z,157.50
2018-01-20T09:33:33.270Z,185.63
2018-01-20T09:34:33.134Z,196.88
2018-01-20T09:36:36.927Z,185.63
2018-01-20T09:37:36.849Z,185.63
2018-01-20T09:39:40.697Z,196.88
2018-01-20T09:40:40.547Z,191.25
2018-01-20T09:42:44.389Z,174.38
2018-01-20T09:43:44.251Z,208.13
2018-01-20T09:44:44.167Z,219.38
2018-01-20T09:45:44.080Z,241.88
2018-01-20T09:46:43.994Z,275.63
2018-01-20T09:47:43.914Z,309.38
2018-01-20T09:48:43.827Z,337.50
2018-01-20T09:49:43.742Z,348.75
2018-01-20T09:50:43.658Z,315.00
2018-01-20T09:51:43.593Z,275.63
2018-01-20T09:52:43.489Z,236.25
2018-01-20T09:53:43.407Z,236.25
2018-01-20T09:54:43.318Z,225.00
2018-01-20T09:55:43.234Z,230.63
2018-01-20T09:56:43.151Z,241.88
2018-01-20T09:57:43.071Z,270.00
2018-01-20T09:58:42.980Z,270.00
2018-01-20T09:59:42.898Z,275.63
2018-01-20T10:00:42.828Z,258.75
2018-01-20T10:01:42.731Z,298.13
2018-01-20T10:02:42.648Z,292.50
2018-01-20T10:03:42.563Z,275.63
2018-01-20T10:04:42.479Z,247.50
2018-01-20T10:05:42.393Z,253.13
2018-01-20T10:06:42.308Z,264.38
2018-01-20T10:07:42.224Z,275.63
2018-01-20T10:08:42.143Z,309.38
2018-01-20T10:09:42.059Z,275.63
2018-01-20T10:10:41.972Z,253.13
2018-01-20T10:11:41.891Z,236.25
2018-01-20T10:12:41.805Z,196.88
2018-01-20T10:13:41.728Z,230.63
2018-01-20T10:14:41.641Z,264.38
2018-01-20T10:15:41.553Z,348.75
2018-01-20T10:16:41.474Z,393.75
2018-01-20T10:17:41.389Z,399.38
2018-01-20T10:18:41.302Z,433.13
2018-01-20T10:19:41.217Z,450.00
2018-01-20T10:20:41.135Z,455.63
2018-01-20T10:21:41.051Z,427.50
2018-01-20T10:22:40.963Z,348.75
2018-01-20T10:23:40.879Z,303.75
2018-01-20T10:24:40.796Z,264.38
2018-01-20T10:25:40.728Z,241.88
2018-01-20T10:26:40.631Z,202.50
2018-01-20T10:27:40.544Z,253.13
2018-01-20T10:28:40.472Z,275.63
2018-01-20T10:29:40.376Z,275.63
2018-01-20T10:30:40.293Z,281.25
2018-01-20T10:31:40.213Z,292.50
2018-01-20T10:32:40.127Z,303.75
2018-01-20T10:33:40.049Z,303.75
2018-01-20T10:34:39.958Z,326.25
2018-01-20T10:35:39.877Z,343.13
2018-01-20T10:36:39.794Z,348.75
2018-01-20T10:37:39.708Z,354.38
2018-01-20T10:38:39.633Z,365.63
2018-01-20T10:39:39.541Z,376.88
2018-01-20T10:40:39.455Z,326.25
2018-01-20T10:41:39.376Z,360.00
2018-01-20T10:42:39.286Z,365.63
2018-01-20T10:43:39.204Z,331.88
2018-01-20T10:44:39.120Z,354.38
2018-01-20T10:45:39.038Z,331.88
2018-01-20T10:46:38.953Z,354.38
2018-01-20T10:47:38.871Z,337.50
2018-01-20T10:48:38.787Z,478.13
2018-01-20T10:49:38.702Z,545.63
2018-01-20T10:50:38.618Z,568.13
2018-01-20T10:51:38.533Z,725.63
2018-01-20T10:52:38.454Z,630.00
2018-01-20T10:53:38.368Z,635.63
2018-01-20T10:54:38.286Z,585.00
2018-01-20T10:55:38.201Z,517.50
2018-01-20T10:56:38.122Z,405.00
2018-01-20T10:57:38.038Z,405.00
2018-01-20T10:58:37.965Z,573.75
2018-01-20T10:59:37.868Z,489.38
2018-01-20T11:00:37.787Z,410.63
2018-01-20T11:01:37.706Z,461.25
2018-01-20T11:02:37.623Z,405.00
2018-01-20T11:03:37.539Z,371.25
2018-01-20T11:04:37.459Z,393.75
2018-01-20T11:05:37.377Z,365.63
2018-01-20T11:06:37.292Z,382.50
2018-01-20T11:07:37.208Z,360.00
2018-01-20T11:08:37.128Z,337.50
2018-01-20T11:09:37.045Z,320.63
2018-01-20T11:10:36.964Z,320.63
2018-01-20T11:11:36.880Z,371.25
2018-01-20T11:12:36.800Z,337.50
2018-01-20T11:13:36.717Z,337.50
2018-01-20T11:14:36.636Z,371.25
2018-01-20T11:15:36.548Z,360.00
2018-01-20T11:16:36.472Z,354.38
2018-01-20T11:17:36.385Z,365.63
2018-01-20T11:18:36.304Z,455.63
2018-01-20T11:19:36.218Z,489.38
2018-01-20T11:20:36.135Z,489.38
2018-01-20T11:21:36.053Z,540.00
2018-01-20T11:22:35.969Z,483.75
2018-01-20T11:23:35.885Z,568.13
2018-01-20T11:24:35.801Z,450.00
2018-01-20T11:25:35.722Z,416.25
2018-01-20T11:26:35.648Z,399.38
2018-01-20T11:27:35.556Z,388.13
2018-01-20T11:28:35.473Z,365.63
2018-01-20T11:29:35.390Z,348.75
2018-01-20T11:30:35.340Z,348.75
2018-01-20T11:31:35.224Z,348.75
2018-01-20T11:32:35.142Z,360.00
2018-01-20T11:33:35.063Z,376.88
2018-01-20T11:34:34.988Z,360.00
2018-01-20T11:35:34.895Z,337.50
2018-01-20T11:36:34.812Z,320.63
2018-01-20T11:37:34.730Z,298.13
2018-01-20T11:38:34.647Z,286.88
2018-01-20T11:39:34.566Z,275.63
2018-01-20T11:40:34.482Z,281.25
2018-01-20T11:41:34.402Z,298.13
2018-01-20T11:42:34.317Z,326.25
2018-01-20T11:43:34.236Z,360.00
2018-01-20T11:44:34.152Z,388.13
2018-01-20T11:45:34.069Z,393.75
2018-01-20T11:46:33.989Z,354.38
2018-01-20T11:47:33.906Z,331.88
2018-01-20T11:48:33.825Z,326.25
2018-01-20T11:49:33.743Z,303.75
2018-01-20T11:50:33.657Z,303.75
2018-01-20T11:51:33.579Z,315.00
2018-01-20T11:52:33.496Z,331.88
2018-01-20T11:53:33.410Z,348.75
2018-01-20T11:54:33.331Z,360.00
2018-01-20T11:55:33.244Z,343.13
2018-01-20T11:56:33.162Z,331.88
2018-01-20T11:57:33.080Z,337.50
2018-01-20T11:58:32.998Z,331.88
2018-01-20T11:59:32.936Z,315.00
2018-01-20T12:00:32.830Z,315.00
2018-01-20T12:01:32.749Z,343.13
2018-01-20T12:02:32.670Z,450.00
2018-01-20T12:03:32.581Z,410.63
2018-01-20T12:04:32.499Z,410.63
2018-01-20T12:05:32.417Z,399.38
2018-01-20T12:06:32.332Z,450.00
2018-01-20T12:07:32.249Z,450.00
2018-01-20T12:08:32.166Z,405.00
2018-01-20T12:09:32.084Z,517.50
2018-01-20T12:10:32.002Z,495.00
2018-01-20T12:11:31.920Z,410.63
2018-01-20T12:12:31.839Z,354.38
2018-01-20T12:13:31.768Z,371.25
2018-01-20T12:14:31.671Z,376.88
2018-01-20T12:15:31.590Z,438.75
2018-01-20T12:16:31.507Z,472.50
2018-01-20T12:17:31.424Z,410.63
2018-01-20T12:18:31.343Z,427.50
2018-01-20T12:19:31.262Z,427.50
2018-01-20T12:20:31.180Z,360.00
2018-01-20T12:21:31.097Z,416.25
2018-01-20T12:22:31.011Z,500.63
2018-01-20T12:23:30.936Z,388.13
2018-01-20T12:24:30.850Z,337.50
2018-01-20T12:25:30.767Z,303.75
2018-01-20T12:26:30.684Z,286.88
2018-01-20T12:27:30.601Z,275.63
2018-01-20T12:28:30.522Z,270.00
2018-01-20T12:29:30.437Z,270.00
2018-01-20T12:30:30.353Z,270.00
2018-01-20T12:31:30.274Z,286.88
2018-01-20T12:32:30.192Z,376.88
2018-01-20T12:33:30.107Z,337.50
2018-01-20T12:34:30.028Z,343.13
2018-01-20T12:35:29.950Z,360.00
2018-01-20T12:36:29.862Z,376.88
2018-01-20T12:37:29.788Z,461.25
2018-01-20T12:38:29.707Z,427.50
2018-01-20T12:39:29.620Z,410.63
2018-01-20T12:40:29.535Z,410.63
2018-01-20T12:41:29.451Z,427.50
2018-01-20T12:42:29.367Z,495.00
2018-01-20T12:43:29.288Z,427.50
2018-01-20T12:44:29.204Z,450.00
2018-01-20T12:45:29.124Z,416.25
2018-01-20T12:46:29.042Z,410.63
2018-01-20T12:47:28.958Z,495.00
2018-01-20T12:48:28.889Z,343.13
2018-01-20T12:49:28.796Z,309.38
2018-01-20T12:50:28.715Z,292.50
2018-01-20T12:51:28.632Z,281.25
2018-01-20T12:52:28.565Z,264.38
2018-01-20T12:53:28.468Z,264.38
2018-01-20T12:54:28.386Z,258.75
2018-01-20T12:55:28.307Z,281.25
2018-01-20T12:56:28.222Z,320.63
2018-01-20T12:57:28.140Z,270.00
2018-01-20T12:58:28.057Z,270.00
2018-01-20T12:59:28.010Z,264.38
2018-01-20T13:00:27.893Z,264.38
2018-01-20T13:01:27.814Z,247.50
2018-01-20T13:02:27.729Z,225.00
2018-01-20T13:03:27.646Z,208.13